Time;durP1;ratioP1;P1;durP2;ratioP2;P2;SDS_P1;SDS_P2;PMS_P1;PMS_P2;Temp;Humidity;BMP_temperature;BMP_pressure;BME280_temperature;BME280_humidity;BME280_pressure;Samples;Min_cycle;Max_cycle;Signal;HPM_P1;HPM_P2
2023/01/20 00:00:28;;;;;;;30.02;19.45;;;1.50;99.90;;;;;;5096473;28;20063;-75
2023/01/20 00:02:54;;;;;;;29.02;18.17;;;1.50;99.90;;;;;;5089742;28;20044;-74
2023/01/20 00:05:20;;;;;;;25.85;18.55;;;1.50;99.90;;;;;;5089422;28;20432;-74
2023/01/20 00:07:45;;;;;;;26.27;16.63;;;1.50;99.90;;;;;;5090829;28;20036;-74
2023/01/20 00:10:11;;;;;;;22.48;16.00;;;1.50;99.90;;;;;;5089907;28;20047;-74
2023/01/20 00:12:37;;;;;;;19.60;13.57;;;1.50;99.90;;;;;;5094590;28;20075;-74
2023/01/20 00:15:03;;;;;;;16.40;12.35;;;1.50;99.90;;;;;;5100597;28;20162;-74
2023/01/20 00:17:29;;;;;;;17.85;12.73;;;1.50;99.90;;;;;;5101081;28;20059;-74
2023/01/20 00:19:54;;;;;;;15.00;12.13;;;1.50;99.90;;;;;;5107197;28;20047;-74
2023/01/20 00:22:21;;;;;;;19.45;12.80;;;1.50;99.90;;;;;;5092043;28;20521;-74
2023/01/20 00:24:46;;;;;;;18.77;13.68;;;1.50;99.90;;;;;;5097812;28;20106;-74
2023/01/20 00:27:12;;;;;;;20.55;14.70;;;1.50;99.90;;;;;;5108490;28;20165;-74
2023/01/20 00:29:38;;;;;;;18.88;13.23;;;1.50;99.90;;;;;;5108668;28;20055;-74
2023/01/20 00:32:03;;;;;;;20.70;13.95;;;1.50;99.90;;;;;;5107518;28;20065;-73
2023/01/20 00:34:29;;;;;;;19.95;14.63;;;1.60;99.90;;;;;;5107693;28;20040;-74
2023/01/20 00:36:55;;;;;;;20.55;13.70;;;1.50;99.90;;;;;;5105141;28;20434;-74
2023/01/20 00:39:20;;;;;;;20.20;13.85;;;1.60;99.90;;;;;;5096199;28;20040;-74
2023/01/20 00:41:46;;;;;;;19.55;13.80;;;1.60;99.90;;;;;;5103956;28;20036;-74
2023/01/20 00:44:11;;;;;;;20.77;14.90;;;1.70;99.90;;;;;;5089802;28;20055;-74
2023/01/20 00:46:37;;;;;;;20.17;14.93;;;1.60;99.90;;;;;;5090034;28;20036;-74
2023/01/20 00:49:03;;;;;;;21.02;14.70;;;1.60;99.90;;;;;;5083919;28;20039;-73
2023/01/20 00:51:28;;;;;;;19.52;15.25;;;1.60;99.90;;;;;;5100285;28;20127;-74
2023/01/20 00:53:54;;;;;;;21.92;15.90;;;1.60;99.90;;;;;;5096419;28;20047;-74
2023/01/20 00:56:20;;;;;;;24.20;16.90;;;1.70;99.90;;;;;;5097762;28;20048;-74
2023/01/20 00:58:45;;;;;;;24.20;16.42;;;1.60;99.90;;;;;;5101214;28;20036;-74
2023/01/20 01:01:11;;;;;;;22.75;16.15;;;1.70;99.90;;;;;;5087938;28;20093;-74
2023/01/20 01:03:37;;;;;;;30.35;17.98;;;1.70;99.90;;;;;;5083764;28;20397;-74
2023/01/20 01:06:14;;;;;;;24.25;16.85;;;1.70;99.90;;;;;;5097396;28;20039;-74
2023/01/20 01:08:40;;;;;;;25.35;18.15;;;1.80;99.90;;;;;;5090935;28;20047;-74
2023/01/20 01:11:06;;;;;;;30.00;18.13;;;1.80;99.90;;;;;;5080090;28;20040;-74
2023/01/20 01:13:32;;;;;;;25.15;17.98;;;1.70;99.90;;;;;;5086675;28;20070;-74
2023/01/20 01:15:58;;;;;;;22.77;16.35;;;1.80;99.90;;;;;;5095711;28;20039;-74
2023/01/20 01:18:24;;;;;;;22.48;16.05;;;1.80;99.90;;;;;;5108849;28;20039;-74
2023/01/20 01:20:49;;;;;;;23.40;16.67;;;1.80;99.90;;;;;;5089886;28;20032;-74
2023/01/20 01:23:15;;;;;;;21.15;15.35;;;1.80;99.90;;;;;;5087613;28;20048;-74
2023/01/20 01:25:41;;;;;;;20.75;15.35;;;1.80;99.90;;;;;;5080412;28;20448;-74
2023/01/20 01:28:06;;;;;;;22.83;15.68;;;1.80;99.90;;;;;;5099344;28;20075;-74
2023/01/20 01:30:32;;;;;;;20.85;15.15;;;1.90;99.90;;;;;;5102498;28;20027;-74
2023/01/20 01:32:58;;;;;;;20.80;15.63;;;1.90;99.90;;;;;;5089961;28;20409;-74
2023/01/20 01:35:24;;;;;;;20.38;14.30;;;1.80;99.90;;;;;;5097572;28;20040;-74
2023/01/20 01:37:49;;;;;;;22.90;14.93;;;1.80;99.90;;;;;;5105319;28;20043;-74
2023/01/20 01:40:15;;;;;;;20.90;14.88;;;1.80;99.90;;;;;;5098313;28;20044;-74
2023/01/20 01:42:41;;;;;;;21.40;15.15;;;1.80;99.90;;;;;;5106962;28;20429;-74
2023/01/20 01:45:09;;;;;;;22.77;16.27;;;1.80;99.90;;;;;;5086508;28;20040;-74
2023/01/20 01:48:06;;;;;;;20.25;14.85;;;1.80;99.90;;;;;;5104822;28;20047;-74
2023/01/20 01:50:37;;;;;;;21.85;14.23;;;1.80;99.90;;;;;;5077615;28;20114;-74
2023/01/20 01:53:04;;;;;;;23.02;15.48;;;1.70;99.90;;;;;;5097544;28;20040;-74
2023/01/20 01:55:35;;;;;;;23.63;15.27;;;1.70;99.90;;;;;;5083507;28;20048;-74
2023/01/20 01:58:04;;;;;;;23.98;15.88;;;1.70;99.90;;;;;;5090602;28;20043;-74
2023/01/20 02:00:29;;;;;;;23.75;16.98;;;1.70;99.90;;;;;;5093388;28;20051;-74
2023/01/20 02:02:56;;;;;;;25.95;18.38;;;1.70;99.90;;;;;;5104508;28;20039;-74
2023/01/20 02:05:22;;;;;;;22.40;16.45;;;1.80;99.90;;;;;;5085888;27;20098;-74
2023/01/20 02:07:49;;;;;;;22.75;16.58;;;1.70;99.90;;;;;;5095417;28;20051;-74
2023/01/20 02:10:15;;;;;;;24.90;17.38;;;1.80;99.90;;;;;;5085232;28;20044;-74
2023/01/20 02:12:42;;;;;;;22.08;15.45;;;1.80;99.90;;;;;;5091183;28;20309;-74
2023/01/20 02:15:08;;;;;;;24.73;16.30;;;1.70;99.90;;;;;;5096168;28;20056;-74
2023/01/20 02:18:18;;;;;;;21.23;15.57;;;1.70;99.90;;;;;;5108141;28;20035;-74
2023/01/20 02:21:08;;;;;;;20.73;14.90;;;1.70;99.90;;;;;;5034706;28;20128;-74
2023/01/20 02:24:12;;;;;;;22.55;15.85;;;1.70;99.90;;;;;;5091618;28;20054;-73
2023/01/20 02:27:18;;;;;;;21.73;15.95;;;1.70;99.90;;;;;;5088731;28;20055;-74
2023/01/20 02:30:06;;;;;;;22.20;16.65;;;1.70;99.90;;;;;;5106061;28;20372;-74
2023/01/20 02:32:46;;;;;;;23.45;17.08;;;1.70;99.90;;;;;;5106835;28;20048;-74
2023/01/20 02:35:40;;;;;;;24.67;17.40;;;1.60;99.90;;;;;;5107238;28;20076;-74
2023/01/20 02:38:26;;;;;;;26.33;17.13;;;1.70;99.90;;;;;;5084880;28;20048;-73
2023/01/20 02:41:11;;;;;;;23.75;16.58;;;1.70;99.90;;;;;;5082629;28;20139;-74
2023/01/20 02:43:58;;;;;;;22.30;16.45;;;1.70;99.90;;;;;;5102588;28;20681;-74
2023/01/20 02:46:37;;;;;;;;;;;1.70;99.90;;;;;;5098360;28;20047;-74
2023/01/20 02:49:30;;;;;;;23.08;15.80;;;1.70;99.90;;;;;;5102337;28;20366;-74
2023/01/20 02:51:57;;;;;;;20.10;15.25;;;1.70;99.90;;;;;;5098333;28;20520;-74
2023/01/20 02:54:27;;;;;;;21.98;15.40;;;1.70;99.90;;;;;;5084203;28;20059;-74
2023/01/20 02:56:55;;;;;;;20.10;14.98;;;1.70;99.90;;;;;;5096245;28;20036;-74
2023/01/20 02:59:25;;;;;;;18.40;14.20;;;1.70;99.90;;;;;;5086495;28;20048;-75
2023/01/20 03:02:01;;;;;;;20.50;15.40;;;1.70;99.90;;;;;;5085214;28;20071;-74
2023/01/20 03:04:38;;;;;;;17.77;13.77;;;1.70;99.90;;;;;;5082785;28;20051;-74
2023/01/20 03:07:05;;;;;;;19.98;15.02;;;1.70;99.90;;;;;;5082368;28;20036;-74
2023/01/20 03:09:39;;;;;;;19.03;14.53;;;1.70;99.90;;;;;;5085322;28;20094;-74
2023/01/20 03:12:21;;;;;;;18.92;14.43;;;1.70;99.90;;;;;;5081107;28;20060;-74
2023/01/20 03:14:51;;;;;;;20.35;14.02;;;1.70;99.90;;;;;;5080203;28;20131;-74
2023/01/20 03:17:18;;;;;;;18.33;13.05;;;1.70;99.90;;;;;;5095071;28;20121;-74
2023/01/20 03:19:43;;;;;;;16.33;12.48;;;1.70;99.90;;;;;;5111177;28;20104;-74
2023/01/20 03:22:09;;;;;;;16.88;12.55;;;1.70;99.90;;;;;;5103652;28;20043;-74
2023/01/20 03:24:37;;;;;;;16.67;12.88;;;1.70;99.90;;;;;;5091838;28;20060;-74
2023/01/20 03:27:04;;;;;;;17.40;13.32;;;1.70;99.90;;;;;;5083451;28;20086;-74
2023/01/20 03:29:31;;;;;;;17.83;13.80;;;1.70;99.90;;;;;;5090465;28;20044;-74
2023/01/20 03:31:59;;;;;;;17.70;13.13;;;1.70;99.90;;;;;;5103004;28;20502;-74
2023/01/20 03:34:28;;;;;;;16.70;12.73;;;1.70;99.90;;;;;;5097977;28;20090;-74
2023/01/20 03:36:56;;;;;;;17.30;12.45;;;1.70;99.90;;;;;;5101822;28;20051;-74
2023/01/20 03:39:23;;;;;;;14.95;12.02;;;1.70;99.90;;;;;;5103429;28;20066;-74
2023/01/20 03:41:51;;;;;;;14.77;11.80;;;1.70;99.90;;;;;;5082358;28;20040;-74
2023/01/20 03:44:44;;;;;;;14.90;11.57;;;1.70;99.90;;;;;;5108574;28;20047;-74
2023/01/20 03:47:30;;;;;;;17.10;12.27;;;1.70;99.90;;;;;;5088658;28;20047;-74
2023/01/20 03:50:11;;;;;;;13.67;10.57;;;1.70;99.90;;;;;;5095141;28;20110;-74
2023/01/20 03:53:13;;;;;;;14.70;10.65;;;1.70;99.90;;;;;;5104335;28;20119;-74
2023/01/20 03:55:50;;;;;;;14.77;11.15;;;1.60;99.90;;;;;;5084819;28;20039;-74
2023/01/20 03:58:27;;;;;;;14.27;10.60;;;1.60;99.90;;;;;;5089654;28;20044;-70
2023/01/20 04:00:56;;;;;;;14.50;11.30;;;1.60;99.90;;;;;;5102469;28;20039;-74
2023/01/20 04:03:28;;;;;;;15.48;11.27;;;1.60;99.90;;;;;;5096372;28;20055;-74
2023/01/20 04:05:56;;;;;;;14.95;11.68;;;1.60;99.90;;;;;;5096975;28;20529;-74
2023/01/20 04:08:25;;;;;;;15.10;11.45;;;1.60;99.90;;;;;;5103781;28;20064;-74
2023/01/20 04:10:54;;;;;;;14.77;11.48;;;1.60;99.90;;;;;;5094187;28;20032;-74
2023/01/20 04:13:19;;;;;;;15.40;11.52;;;1.60;99.90;;;;;;5110665;28;20043;-73
2023/01/20 04:15:45;;;;;;;14.70;11.93;;;1.60;99.90;;;;;;5101266;28;20051;-74
2023/01/20 04:18:19;;;;;;;16.25;12.32;;;1.70;99.90;;;;;;5095392;28;20048;-74
2023/01/20 04:20:49;;;;;;;13.27;10.63;;;1.70;99.90;;;;;;5096587;28;20043;-75
2023/01/20 04:23:41;;;;;;;14.00;10.88;;;1.70;99.90;;;;;;5111087;28;20360;-75
2023/01/20 04:26:07;;;;;;;14.68;10.85;;;1.70;99.90;;;;;;5102274;28;20043;-74
2023/01/20 04:28:32;;;;;;;15.65;11.40;;;1.60;99.90;;;;;;5111205;28;20051;-74
2023/01/20 04:30:58;;;;;;;14.93;11.07;;;1.60;99.90;;;;;;5099166;28;20043;-75
2023/01/20 04:33:23;;;;;;;14.45;11.52;;;1.60;99.90;;;;;;5105555;28;20486;-74
2023/01/20 04:35:49;;;;;;;16.52;11.90;;;1.70;99.90;;;;;;5104088;28;20036;-74
2023/01/20 04:38:15;;;;;;;14.57;11.10;;;1.70;99.90;;;;;;5100303;28;20038;-74
2023/01/20 04:40:41;;;;;;;15.35;11.25;;;1.70;99.90;;;;;;5093119;28;20036;-75
2023/01/20 04:43:08;;;;;;;14.38;10.98;;;1.70;99.90;;;;;;5105580;28;20032;-74
2023/01/20 04:45:34;;;;;;;14.00;11.05;;;1.70;99.90;;;;;;5096152;28;20470;-74
2023/01/20 04:48:00;;;;;;;14.27;11.52;;;1.70;99.90;;;;;;5094469;28;20159;-74
2023/01/20 04:50:26;;;;;;;14.73;10.90;;;1.70;99.90;;;;;;5085735;28;20079;-74
2023/01/20 04:52:55;;;;;;;15.07;10.93;;;1.70;99.90;;;;;;5102060;28;20044;-74
2023/01/20 04:55:20;;;;;;;15.50;11.10;;;1.70;99.90;;;;;;5090876;28;20535;-74
2023/01/20 04:57:46;;;;;;;14.10;10.75;;;1.70;99.90;;;;;;5098975;28;20052;-74
2023/01/20 05:00:17;;;;;;;16.20;11.20;;;1.70;99.90;;;;;;5102555;28;20493;-74
2023/01/20 05:02:43;;;;;;;16.20;11.75;;;1.70;99.90;;;;;;5096520;28;20038;-74
2023/01/20 05:05:09;;;;;;;16.30;12.30;;;1.70;99.90;;;;;;5080790;28;20046;-74
2023/01/20 05:07:34;;;;;;;17.63;12.88;;;1.70;99.90;;;;;;5080581;28;20119;-75
2023/01/20 05:10:00;;;;;;;17.00;12.65;;;1.70;99.90;;;;;;5089968;28;20384;-74
2023/01/20 05:12:26;;;;;;;18.77;13.25;;;1.80;99.90;;;;;;5099219;28;20067;-73
2023/01/20 05:14:51;;;;;;;19.02;13.95;;;1.70;99.90;;;;;;5099450;28;20121;-74
2023/01/20 05:17:17;;;;;;;20.23;14.38;;;1.70;99.90;;;;;;5107683;28;20463;-74
2023/01/20 05:19:43;;;;;;;19.52;14.15;;;1.70;99.90;;;;;;5100176;28;20055;-75
2023/01/20 05:22:09;;;;;;;22.02;15.43;;;1.70;99.90;;;;;;5107749;28;20043;-75
2023/01/20 05:24:34;;;;;;;22.10;15.52;;;1.70;99.90;;;;;;5098596;28;20044;-75
2023/01/20 05:27:00;;;;;;;20.77;15.43;;;1.70;99.90;;;;;;5097579;28;20051;-75
2023/01/20 05:29:27;;;;;;;21.67;15.63;;;1.70;99.90;;;;;;5089547;28;20047;-75
2023/01/20 05:31:53;;;;;;;19.25;14.05;;;1.70;99.90;;;;;;5098899;28;20042;-75
2023/01/20 05:34:19;;;;;;;19.92;14.85;;;1.70;99.90;;;;;;5106805;28;20040;-75
2023/01/20 05:36:44;;;;;;;23.17;15.85;;;1.70;99.90;;;;;;5097984;28;20048;-75
2023/01/20 05:39:10;;;;;;;22.25;15.70;;;1.70;99.90;;;;;;5107052;28;20069;-75
2023/01/20 05:41:35;;;;;;;21.02;15.63;;;1.70;99.90;;;;;;5104613;28;20039;-75
2023/01/20 05:44:01;;;;;;;21.70;15.48;;;1.70;99.90;;;;;;5104657;28;20043;-75
2023/01/20 05:46:27;;;;;;;21.70;15.57;;;1.70;99.90;;;;;;5098149;28;20042;-75
2023/01/20 05:48:52;;;;;;;22.70;15.60;;;1.70;99.90;;;;;;5108017;28;20052;-73
2023/01/20 05:51:18;;;;;;;24.08;16.23;;;1.70;99.90;;;;;;5104385;28;20054;-73
2023/01/20 05:53:44;;;;;;;25.30;16.75;;;1.70;99.90;;;;;;5098335;28;20040;-75
2023/01/20 05:56:14;;;;;;;25.60;18.17;;;1.70;99.90;;;;;;5101001;28;20043;-75
2023/01/20 05:58:40;;;;;;;23.98;17.13;;;1.70;99.90;;;;;;5103761;28;20035;-75
2023/01/20 06:01:09;;;;;;;24.48;15.88;;;1.70;99.90;;;;;;5095096;28;20036;-75
2023/01/20 06:03:35;;;;;;;26.38;17.88;;;1.70;99.90;;;;;;5095434;28;20402;-73
2023/01/20 06:06:03;;;;;;;28.52;18.17;;;1.70;99.90;;;;;;5102878;28;20043;-74
2023/01/20 06:08:29;;;;;;;28.30;18.55;;;1.70;99.90;;;;;;5099053;28;20090;-73
2023/01/20 06:10:55;;;;;;;29.00;19.00;;;1.70;99.90;;;;;;5087312;28;20070;-73
2023/01/20 06:13:20;;;;;;;25.77;18.70;;;1.70;99.90;;;;;;5095867;28;20101;-73
2023/01/20 06:15:54;;;;;;;26.42;18.73;;;1.70;99.90;;;;;;5102377;28;20090;-73
2023/01/20 06:18:20;;;;;;;28.25;18.63;;;1.70;99.90;;;;;;5089775;28;20455;-73
2023/01/20 06:20:46;;;;;;;32.88;19.52;;;1.70;99.90;;;;;;5091145;28;20475;-73
2023/01/20 06:23:12;;;;;;;31.23;20.23;;;1.70;99.90;;;;;;5103908;28;20039;-74
2023/01/20 06:25:38;;;;;;;31.67;20.45;;;1.70;99.90;;;;;;5102570;28;20127;-74
2023/01/20 06:28:04;;;;;;;34.97;22.92;;;1.70;99.90;;;;;;5099018;28;20053;-74
2023/01/20 06:30:29;;;;;;;33.30;21.95;;;1.70;99.90;;;;;;5098335;28;20035;-74
2023/01/20 06:32:56;;;;;;;33.65;21.75;;;1.70;99.90;;;;;;5100382;28;20044;-75
2023/01/20 06:35:23;;;;;;;33.40;22.45;;;1.70;99.90;;;;;;5095549;28;20043;-75
2023/01/20 06:37:48;;;;;;;34.53;23.15;;;1.70;99.90;;;;;;5099481;28;20134;-75
2023/01/20 06:40:14;;;;;;;33.40;23.63;;;1.80;99.90;;;;;;5080068;28;20054;-73
2023/01/20 06:42:40;;;;;;;36.05;23.95;;;1.70;99.90;;;;;;5075672;28;20048;-75
2023/01/20 06:45:07;;;;;;;36.83;24.63;;;1.70;99.90;;;;;;5082441;28;20100;-75
2023/01/20 06:47:32;;;;;;;36.72;23.45;;;1.70;99.90;;;;;;5087928;28;20083;-75
2023/01/20 06:49:58;;;;;;;33.58;22.58;;;1.80;99.90;;;;;;5086815;28;20064;-74
2023/01/20 06:52:24;;;;;;;35.83;22.67;;;1.80;99.90;;;;;;5088091;28;20056;-75
2023/01/20 06:54:50;;;;;;;36.55;23.77;;;1.80;99.90;;;;;;5091182;28;20359;-75
2023/01/20 06:57:15;;;;;;;37.60;22.55;;;1.80;99.90;;;;;;5096832;28;20031;-74
2023/01/20 06:59:41;;;;;;;35.90;23.10;;;1.80;99.90;;;;;;5088204;28;20128;-76
2023/01/20 07:02:10;;;;;;;37.42;24.05;;;1.80;99.90;;;;;;5089659;28;20032;-76
2023/01/20 07:04:36;;;;;;;37.83;24.25;;;1.90;99.90;;;;;;5098700;28;20148;-76
2023/01/20 07:07:02;;;;;;;39.20;24.17;;;1.80;99.90;;;;;;5103561;28;20448;-76
2023/01/20 07:09:27;;;;;;;40.03;24.35;;;1.90;99.90;;;;;;5092984;28;20483;-76
2023/01/20 07:11:54;;;;;;;37.33;24.38;;;1.90;99.90;;;;;;5088245;28;20399;-75
2023/01/20 07:14:19;;;;;;;41.72;26.13;;;1.80;99.90;;;;;;5095237;28;20572;-76
2023/01/20 07:16:46;;;;;;;40.45;26.67;;;1.90;99.90;;;;;;5093219;28;20048;-76
2023/01/20 07:19:12;;;;;;;39.63;25.02;;;1.90;99.90;;;;;;5089769;28;20056;-75
2023/01/20 07:21:38;;;;;;;38.72;24.30;;;1.90;99.90;;;;;;5089000;28;20037;-75
2023/01/20 07:24:04;;;;;;;42.97;25.77;;;1.90;99.90;;;;;;5101782;28;20048;-76
2023/01/20 07:26:30;;;;;;;38.70;25.45;;;1.90;99.90;;;;;;5095657;28;20051;-76
2023/01/20 07:28:57;;;;;;;39.53;24.27;;;1.90;99.90;;;;;;5090758;28;20119;-76
2023/01/20 07:31:25;;;;;;;38.45;24.15;;;1.90;99.90;;;;;;5089338;28;20384;-75
2023/01/20 07:33:53;;;;;;;43.10;25.75;;;1.90;99.90;;;;;;5086951;28;20543;-76
2023/01/20 07:36:19;;;;;;;42.95;25.83;;;1.90;99.90;;;;;;5095306;28;20104;-76
2023/01/20 07:38:49;;;;;;;39.08;23.77;;;1.90;99.90;;;;;;5091484;28;20727;-76
2023/01/20 07:41:15;;;;;;;42.05;24.33;;;1.90;99.90;;;;;;5090105;28;20040;-76
2023/01/20 07:43:46;;;;;;;42.10;24.63;;;1.90;99.90;;;;;;5089448;28;20119;-76
2023/01/20 07:46:13;;;;;;;44.22;25.90;;;1.90;99.90;;;;;;5088184;28;20036;-76
2023/01/20 07:48:39;;;;;;;41.08;24.33;;;1.90;99.90;;;;;;5099168;28;20146;-75
2023/01/20 07:51:08;;;;;;;41.30;25.13;;;1.90;99.90;;;;;;5093332;28;20047;-75
2023/01/20 07:53:37;;;;;;;39.92;25.13;;;1.90;99.90;;;;;;5090395;28;20040;-76
2023/01/20 07:56:06;;;;;;;42.20;24.52;;;2.00;99.90;;;;;;5092801;28;20501;-76
2023/01/20 07:58:31;;;;;;;37.53;23.52;;;2.00;99.90;;;;;;5094366;28;20071;-75
2023/01/20 08:01:04;;;;;;;37.78;22.52;;;1.90;99.90;;;;;;5093331;28;20117;-75
2023/01/20 08:03:30;;;;;;;39.05;22.85;;;2.00;99.90;;;;;;5088869;28;20071;-76
2023/01/20 08:05:56;;;;;;;38.08;22.23;;;2.00;99.90;;;;;;5090613;28;20040;-75
2023/01/20 08:08:22;;;;;;;35.63;22.20;;;1.90;99.90;;;;;;5091518;28;20506;-75
2023/01/20 08:10:53;;;;;;;36.22;22.73;;;1.90;99.90;;;;;;5088856;28;20055;-75
2023/01/20 08:13:19;;;;;;;38.83;23.77;;;2.00;99.90;;;;;;5091151;28;20052;-76
2023/01/20 08:15:44;;;;;;;39.25;24.95;;;2.00;99.90;;;;;;5089704;28;20407;-76
2023/01/20 08:18:10;;;;;;;40.47;24.80;;;2.00;99.90;;;;;;5095567;28;20495;-76
2023/01/20 08:20:39;;;;;;;38.15;22.92;;;2.00;99.90;;;;;;5079951;28;20055;-76
2023/01/20 08:23:06;;;;;;;38.97;23.98;;;2.00;99.90;;;;;;5089304;28;20097;-79
2023/01/20 08:25:31;;;;;;;40.63;24.03;;;2.00;99.90;;;;;;5086194;28;20493;-76
2023/01/20 08:27:57;;;;;;;37.83;22.95;;;2.00;99.90;;;;;;5092926;28;20067;-75
2023/01/20 08:30:23;;;;;;;41.17;24.88;;;2.00;99.90;;;;;;5103175;28;20099;-77
2023/01/20 08:32:49;;;;;;;37.70;22.60;;;2.00;99.90;;;;;;5105674;28;20040;-78
2023/01/20 08:35:14;;;;;;;34.47;22.63;;;2.00;99.90;;;;;;5093989;28;20032;-77
2023/01/20 08:37:40;;;;;;;38.58;22.08;;;2.00;99.90;;;;;;5091892;28;20040;-76
2023/01/20 08:40:08;;;;;;;34.47;22.45;;;2.00;99.90;;;;;;5087969;28;20041;-77
2023/01/20 08:42:35;;;;;;;34.42;21.83;;;2.00;99.90;;;;;;5082561;28;20055;-78
2023/01/20 08:45:00;;;;;;;33.80;20.97;;;2.00;99.90;;;;;;5091278;28;20345;-73
2023/01/20 08:47:26;;;;;;;34.88;21.38;;;2.00;99.90;;;;;;5093928;28;20096;-79
2023/01/20 08:49:52;;;;;;;34.33;21.10;;;2.00;99.90;;;;;;5090622;28;20139;-77
2023/01/20 08:52:18;;;;;;;33.58;20.92;;;1.90;99.90;;;;;;5087634;28;20051;-76
2023/01/20 08:54:44;;;;;;;33.10;21.80;;;2.00;99.90;;;;;;5091026;28;20097;-77
2023/01/20 08:57:10;;;;;;;36.00;22.00;;;2.00;99.90;;;;;;5089017;28;20407;-76
2023/01/20 08:59:35;;;;;;;36.55;21.63;;;2.00;99.90;;;;;;5102222;28;20445;-74
2023/01/20 09:02:01;;;;;;;38.80;24.20;;;2.00;99.90;;;;;;5096759;28;20131;-76
2023/01/20 09:04:27;;;;;;;35.85;22.55;;;2.00;99.90;;;;;;5099833;28;20040;-77
2023/01/20 09:06:52;;;;;;;34.22;22.45;;;2.00;99.90;;;;;;5111727;28;20036;-76
2023/01/20 09:09:21;;;;;;;37.38;22.88;;;2.00;99.90;;;;;;5111129;28;20186;-71
2023/01/20 09:11:49;;;;;;;38.13;23.10;;;2.10;99.90;;;;;;5107669;28;20463;-72
2023/01/20 09:14:24;;;;;;;37.53;23.15;;;2.10;99.90;;;;;;5097150;28;20115;-73
2023/01/20 09:16:50;;;;;;;41.00;23.48;;;2.00;99.90;;;;;;5105426;28;20447;-75
2023/01/20 09:19:16;;;;;;;40.65;22.73;;;2.10;99.90;;;;;;5109159;28;20075;-77
2023/01/20 09:21:42;;;;;;;35.65;23.17;;;2.10;99.90;;;;;;5094528;28;20086;-78
2023/01/20 09:24:08;;;;;;;35.78;22.60;;;2.10;99.90;;;;;;5090481;28;20055;-80
2023/01/20 09:26:37;;;;;;;39.20;23.45;;;2.00;99.90;;;;;;5091641;28;20063;-79
2023/01/20 09:29:08;;;;;;;38.47;23.48;;;2.10;99.90;;;;;;5102420;28;20043;-80
2023/01/20 09:31:34;;;;;;;40.50;25.00;;;2.10;99.90;;;;;;5098973;28;20727;-76
2023/01/20 09:34:00;;;;;;;38.67;24.27;;;2.10;99.90;;;;;;5110377;28;20119;-77
2023/01/20 09:36:29;;;;;;;39.25;23.63;;;2.10;99.90;;;;;;5093331;28;20043;-74
2023/01/20 09:43:52;;;;;;;40.95;24.13;;;2.10;99.90;;;;;;5078722;28;20040;-76
2023/01/20 09:45:08;;;;;;;40.10;23.10;;;2.10;99.90;;;;;;5099316;28;20451;-76
2023/01/20 09:47:42;;;;;;;39.95;22.85;;;2.10;99.90;;;;;;5103711;28;20142;-78
2023/01/20 09:53:45;;;;;;;44.30;24.42;;;2.10;99.90;;;;;;5108340;28;20079;-74
2023/01/20 09:56:15;;;;;;;46.72;26.05;;;2.10;99.90;;;;;;5104607;28;20070;-75
2023/01/20 09:59:00;;;;;;;46.70;26.67;;;2.10;99.90;;;;;;5109494;28;20482;-74
2023/01/20 10:01:38;;;;;;;43.72;25.58;;;2.20;99.90;;;;;;5089454;28;20044;-76
2023/01/20 10:04:08;;;;;;;;;;;2.20;99.90;;;;;;5092890;28;20081;-75
2023/01/20 10:06:42;;;;;;;45.65;24.50;;;2.20;99.90;;;;;;5093704;28;19924;-76
2023/01/20 10:09:20;;;;;;;47.08;25.90;;;2.20;99.90;;;;;;5095221;28;20055;-75
2023/01/20 10:11:48;;;;;;;43.47;24.33;;;2.20;99.90;;;;;;5107236;28;20047;-73
2023/01/20 10:14:33;;;;;;;43.15;26.00;;;2.20;99.90;;;;;;5106217;28;20048;-73
2023/01/20 10:17:12;;;;;;;46.00;25.08;;;2.20;99.90;;;;;;5089818;28;20139;-72
2023/01/20 10:19:50;;;;;;;45.42;26.55;;;2.20;99.90;;;;;;5095912;28;20108;-73
2023/01/20 10:22:30;;;;;;;43.30;24.80;;;2.30;99.90;;;;;;5110224;28;20051;-73
2023/01/20 10:25:05;;;;;;;45.00;24.80;;;2.30;99.90;;;;;;5094108;28;20039;-73
2023/01/20 10:27:33;;;;;;;44.28;24.38;;;2.20;99.90;;;;;;5107910;28;20050;-73
2023/01/20 10:30:07;;;;;;;43.75;24.27;;;2.20;99.90;;;;;;5093075;28;20076;-74
2023/01/20 10:32:36;;;;;;;42.15;23.25;;;2.20;99.90;;;;;;5089640;28;20055;-79
2023/01/20 10:35:26;;;;;;;43.65;24.25;;;2.20;99.90;;;;;;5089322;28;20068;-81
2023/01/20 10:37:54;;;;;;;45.88;23.33;;;2.20;99.90;;;;;;5096126;28;20032;-74
2023/01/20 10:40:22;;;;;;;41.08;23.15;;;2.30;99.90;;;;;;5092709;28;20040;-75
2023/01/20 10:42:54;;;;;;;41.45;24.25;;;2.30;99.90;;;;;;5088566;28;20052;-81
2023/01/20 10:46:04;;;;;;;45.40;24.95;;;2.30;99.90;;;;;;5101139;28;20101;-78
2023/01/20 10:48:51;;;;;;;44.63;22.65;;;2.30;99.90;;;;;;5007296;28;20485;-82
2023/01/20 10:51:27;;;;;;;42.08;22.58;;;2.30;99.90;;;;;;5085269;28;20073;-85
2023/01/20 10:54:03;;;;;;;44.10;22.75;;;2.40;99.90;;;;;;5094298;28;20044;-83
2023/01/20 10:56:52;;;;;;;43.13;24.25;;;2.30;99.90;;;;;;5094426;28;20044;-83
2023/01/20 10:59:31;;;;;;;43.40;22.92;;;2.30;99.90;;;;;;5073440;28;20429;-82
2023/01/20 11:02:02;;;;;;;43.25;24.02;;;2.30;99.90;;;;;;5098443;28;20043;-77
2023/01/20 11:04:28;;;;;;;43.83;23.70;;;2.30;99.90;;;;;;5075442;28;20043;-76
2023/01/20 11:06:57;;;;;;;41.72;21.75;;;2.40;99.90;;;;;;5088855;28;20044;-75
2023/01/20 11:09:34;;;;;;;41.80;22.40;;;2.30;99.90;;;;;;5085783;28;20036;-71
2023/01/20 11:12:02;;;;;;;38.28;21.33;;;2.30;99.90;;;;;;5088836;28;20173;-78
2023/01/20 11:14:28;;;;;;;38.05;21.13;;;2.30;99.90;;;;;;5086462;28;20044;-81
2023/01/20 11:17:03;;;;;;;42.13;22.15;;;2.30;99.90;;;;;;5098004;28;20047;-79
2023/01/20 11:19:51;;;;;;;40.50;21.85;;;2.30;99.90;;;;;;5100826;28;20051;-76
2023/01/20 11:22:22;;;;;;;41.42;21.52;;;2.40;99.90;;;;;;5086671;28;20040;-77
2023/01/20 11:24:54;;;;;;;35.33;20.30;;;2.40;99.90;;;;;;5095678;28;20074;-76
2023/01/20 11:27:23;;;;;;;39.65;21.48;;;2.40;99.90;;;;;;5092697;28;20044;-76
2023/01/20 11:30:00;;;;;;;39.72;21.75;;;2.50;99.90;;;;;;5087487;28;20039;-81
2023/01/20 11:32:30;;;;;;;40.47;22.48;;;2.50;99.90;;;;;;5098049;28;20428;-78
2023/01/20 11:34:56;;;;;;;39.05;21.75;;;2.50;99.90;;;;;;5096826;28;20044;-81
2023/01/20 11:37:24;;;;;;;37.53;21.75;;;2.60;99.90;;;;;;5088448;28;20491;-80
2023/01/20 11:39:50;;;;;;;41.00;21.88;;;2.60;99.90;;;;;;5100067;28;20040;-81
2023/01/20 11:42:40;;;;;;;37.85;21.58;;;2.70;99.90;;;;;;5092578;28;20093;-80
2023/01/20 11:45:27;;;;;;;36.83;21.17;;;2.70;99.90;;;;;;5090355;28;20391;-75
2023/01/20 11:48:14;;;;;;;36.47;20.13;;;2.70;99.90;;;;;;5090626;28;20058;-73
2023/01/20 11:50:54;;;;;;;39.25;21.58;;;2.70;99.90;;;;;;5091113;28;20102;-72
2023/01/20 11:53:26;;;;;;;35.80;19.95;;;2.70;99.90;;;;;;5089441;28;20048;-72
2023/01/20 11:55:59;;;;;;;33.90;20.48;;;2.70;99.90;;;;;;5092852;28;20494;-72
2023/01/20 11:58:27;;;;;;;35.80;20.95;;;2.70;99.90;;;;;;5089668;28;20085;-74
2023/01/20 12:01:24;;;;;;;37.20;21.55;;;2.70;99.90;;;;;;5102825;28;20408;-76
2023/01/20 12:03:52;;;;;;;41.47;21.58;;;2.70;99.90;;;;;;5088922;28;20117;-76
2023/01/20 12:06:27;;;;;;;37.85;20.20;;;2.70;99.90;;;;;;5091868;28;20397;-79
2023/01/20 12:09:14;;;;;;;37.22;21.88;;;2.60;99.90;;;;;;5084942;28;20067;-81
2023/01/20 12:11:50;;;;;;;37.08;20.65;;;2.60;99.90;;;;;;5101505;28;20126;-81
2023/01/20 12:14:24;;;;;;;37.33;22.48;;;2.60;99.90;;;;;;5089408;28;20051;-83
2023/01/20 12:16:58;;;;;;;37.08;21.10;;;2.60;99.90;;;;;;5091265;28;20096;-81
2023/01/20 12:19:35;;;;;;;37.17;22.67;;;2.60;99.90;;;;;;5096071;28;20096;-81
2023/01/20 12:22:05;;;;;;;;;;;2.60;99.90;;;;;;5092755;28;20466;-83
2023/01/20 12:25:06;;;;;;;33.50;20.05;;;2.60;99.90;;;;;;5099493;28;19924;-82
2023/01/20 12:27:33;;;;;;;36.78;21.30;;;2.60;99.90;;;;;;5096154;28;20055;-74
2023/01/20 12:30:03;;;;;;;34.85;20.38;;;2.70;99.90;;;;;;5090838;28;20047;-74
2023/01/20 12:32:30;;;;;;;40.15;21.50;;;2.70;99.90;;;;;;5090577;28;20047;-72
2023/01/20 12:34:56;;;;;;;36.70;21.17;;;2.70;99.90;;;;;;5093216;28;20122;-71
2023/01/20 12:38:03;;;;;;;39.05;21.95;;;2.70;99.90;;;;;;5092570;28;20118;-69
2023/01/20 12:40:53;;;;;;;38.22;21.60;;;2.70;99.90;;;;;;5073174;28;20091;-76
2023/01/20 12:43:31;;;;;;;40.08;23.27;;;2.70;99.90;;;;;;5093474;28;20059;-74
2023/01/20 12:46:01;;;;;;;;;;;2.70;99.90;;;;;;5090681;28;20056;-72
2023/01/20 12:48:39;;;;;;;41.40;22.70;;;2.80;99.90;;;;;;5089424;28;20280;-74
2023/01/20 12:51:22;;;;;;;41.42;24.63;;;2.80;99.90;;;;;;5088741;28;20111;-76
2023/01/20 12:54:23;;;;;;;43.53;24.77;;;2.80;99.90;;;;;;5094846;28;20124;-74
2023/01/20 12:57:15;;;;;;;41.15;24.17;;;2.80;99.90;;;;;;5090653;28;20036;-77
2023/01/20 13:00:00;;;;;;;38.38;23.27;;;2.70;99.90;;;;;;5089190;28;20043;-79
2023/01/20 13:02:43;;;;;;;37.17;22.70;;;2.80;99.90;;;;;;5074584;28;20043;-79